sensor_id;sensor_type;location;lat;lon;timestamp;pressure;altitude;pressure_sealevel;temperature;humidity
15260;BME280;34462;51.368;12.364;2024-03-17T00:00:46;18525.53;;;-141.84;73.20
15260;BME280;34462;51.368;12.364;2024-03-17T00:03:13;18533.66;;;-141.84;73.78
15260;BME280;34462;51.368;12.364;2024-03-17T00:05:39;18533.66;;;-141.84;74.35
15260;BME280;34462;51.368;12.364;2024-03-17T00:08:08;18553.97;;;-141.84;74.11
15260;BME280;34462;51.368;12.364;2024-03-17T00:10:34;18533.66;;;-141.84;74.31
15260;BME280;34462;51.368;12.364;2024-03-17T00:13:02;18582.44;;;-141.84;75.08
15260;BME280;34462;51.368;12.364;2024-03-17T00:15:28;18696.19;;;-141.84;76.40
15260;BME280;34462;51.368;12.364;2024-03-17T00:17:55;18722.63;;;-141.84;76.21
15260;BME280;34462;51.368;12.364;2024-03-17T00:20:22;18588.53;;;-141.84;75.36
15260;BME280;34462;51.368;12.364;2024-03-17T00:22:52;18491.00;;;-141.84;73.68
15260;BME280;34462;51.368;12.364;2024-03-17T00:25:20;18525.53;;;-141.84;74.29
15260;BME280;34462;51.368;12.364;2024-03-17T00:27:51;18655.56;;;-141.84;75.80
15260;BME280;34462;51.368;12.364;2024-03-17T00:30:21;18521.47;;;-141.84;73.80
15260;BME280;34462;51.368;12.364;2024-03-17T00:32:48;18556.00;;;-141.84;74.66
15260;BME280;34462;51.368;12.364;2024-03-17T00:35:14;18547.88;;;-141.84;74.76
15260;BME280;34462;51.368;12.364;2024-03-17T00:37:46;18629.16;;;-141.84;75.40
15260;BME280;34462;51.368;12.364;2024-03-17T00:40:15;18635.25;;;-141.84;76.05
15260;BME280;34462;51.368;12.364;2024-03-17T00:42:44;18742.94;;;-141.84;76.61
15260;BME280;34462;51.368;12.364;2024-03-17T00:45:11;18580.41;;;-141.84;75.23
15260;BME280;34462;51.368;12.364;2024-03-17T00:47:39;18576.31;;;-141.84;75.55
15260;BME280;34462;51.368;12.364;2024-03-17T00:50:06;18515.38;;;-141.84;74.35
15260;BME280;34462;51.368;12.364;2024-03-17T00:52:34;18637.28;;;-141.84;75.92
15260;BME280;34462;51.368;12.364;2024-03-17T00:55:01;18728.72;;;-141.84;76.60
15260;BME280;34462;51.368;12.364;2024-03-17T00:57:28;18799.81;;;-141.84;77.34
15260;BME280;34462;51.368;12.364;2024-03-17T00:59:56;19015.19;;;-141.84;78.27
15260;BME280;34462;51.368;12.364;2024-03-17T01:02:24;19100.53;;;-141.84;78.73
15260;BME280;34462;51.368;12.364;2024-03-17T01:04:52;19334.22;;;-141.84;79.17
15260;BME280;34462;51.368;12.364;2024-03-17T01:07:19;19448.03;;;-141.84;79.50
15260;BME280;34462;51.368;12.364;2024-03-17T01:09:47;19192.00;;;-141.84;78.77
15260;BME280;34462;51.368;12.364;2024-03-17T01:12:15;18988.78;;;-141.84;78.29
15260;BME280;34462;51.368;12.364;2024-03-17T01:14:41;18578.38;;;-141.84;76.09
15260;BME280;34462;51.368;12.364;2024-03-17T01:17:12;18616.97;;;-141.84;76.32
15260;BME280;34462;51.368;12.364;2024-03-17T01:19:38;18870.94;;;-141.84;78.02
15260;BME280;34462;51.368;12.364;2024-03-17T01:22:06;18795.75;;;-141.84;77.50
15260;BME280;34462;51.368;12.364;2024-03-17T01:24:34;18899.38;;;-141.84;78.09
15260;BME280;34462;51.368;12.364;2024-03-17T01:27:01;19214.34;;;-141.84;79.00
15260;BME280;34462;51.368;12.364;2024-03-17T01:29:28;18814.03;;;-141.84;77.64
15260;BME280;34462;51.368;12.364;2024-03-17T01:31:55;18702.28;;;-141.84;77.25
15260;BME280;34462;51.368;12.364;2024-03-17T01:34:24;18742.94;;;-141.84;77.26
15260;BME280;34462;51.368;12.364;2024-03-17T01:36:50;18889.22;;;-141.84;77.72
15260;BME280;34462;51.368;12.364;2024-03-17T01:39:18;18722.63;;;-141.84;77.37
15260;BME280;34462;51.368;12.364;2024-03-17T01:41:47;18578.38;;;-141.84;75.84
15260;BME280;34462;51.368;12.364;2024-03-17T01:44:23;18513.34;;;-141.84;75.33
15260;BME280;34462;51.368;12.364;2024-03-17T01:46:52;18675.88;;;-141.84;76.91
15260;BME280;34462;51.368;12.364;2024-03-17T01:49:20;18757.16;;;-141.84;77.50
15260;BME280;34462;51.368;12.364;2024-03-17T01:51:51;18706.38;;;-141.84;77.09
15260;BME280;34462;51.368;12.364;2024-03-17T01:54:18;18631.19;;;-141.84;76.70
15260;BME280;34462;51.368;12.364;2024-03-17T01:56:47;18704.31;;;-141.84;76.78
15260;BME280;34462;51.368;12.364;2024-03-17T01:59:14;18580.41;;;-141.84;75.84
15260;BME280;34462;51.368;12.364;2024-03-17T02:01:41;18696.19;;;-141.84;77.15
15260;BME280;34462;51.368;12.364;2024-03-17T02:04:07;19275.31;;;-141.84;79.44
15260;BME280;34462;51.368;12.364;2024-03-17T02:06:35;19665.47;;;-141.84;79.95
15260;BME280;34462;51.368;12.364;2024-03-17T02:09:02;19263.09;;;-141.84;78.96
15260;BME280;34462;51.368;12.364;2024-03-17T02:11:32;19007.06;;;-141.84;78.57
15260;BME280;34462;51.368;12.364;2024-03-17T02:13:59;18816.06;;;-141.84;77.88
15260;BME280;34462;51.368;12.364;2024-03-17T02:16:27;18592.59;;;-141.84;75.94
15260;BME280;34462;51.368;12.364;2024-03-17T02:18:55;18497.09;;;-141.84;75.54
15260;BME280;34462;51.368;12.364;2024-03-17T02:21:23;18584.47;;;-141.84;76.17
15260;BME280;34462;51.368;12.364;2024-03-17T02:23:52;18785.59;;;-141.84;77.60
15260;BME280;34462;51.368;12.364;2024-03-17T02:26:20;18702.28;;;-141.84;77.07
15260;BME280;34462;51.368;12.364;2024-03-17T02:28:47;18755.13;;;-141.84;77.67
15260;BME280;34462;51.368;12.364;2024-03-17T02:31:16;18913.59;;;-141.84;78.55
15260;BME280;34462;51.368;12.364;2024-03-17T02:33:44;19021.31;;;-141.84;78.78
15260;BME280;34462;51.368;12.364;2024-03-17T02:36:13;18854.69;;;-141.84;78.08
15260;BME280;34462;51.368;12.364;2024-03-17T02:38:40;18842.50;;;-141.84;77.90
15260;BME280;34462;51.368;12.364;2024-03-17T02:41:42;18639.31;;;-141.84;76.97
15260;BME280;34462;51.368;12.364;2024-03-17T02:44:11;18801.84;;;-141.84;77.97
15260;BME280;34462;51.368;12.364;2024-03-17T02:46:38;18807.94;;;-141.84;77.94
15260;BME280;34462;51.368;12.364;2024-03-17T02:49:05;19192.00;;;-141.84;79.29
15260;BME280;34462;51.368;12.364;2024-03-17T02:51:35;19714.25;;;-141.84;80.48
15260;BME280;34462;51.368;12.364;2024-03-17T02:54:02;20653.28;;;-141.84;81.45
15260;BME280;34462;51.368;12.364;2024-03-17T02:56:33;23302.94;;;-141.84;82.88
15260;BME280;34462;51.368;12.364;2024-03-17T02:59:01;23528.72;;;-141.84;82.68
15260;BME280;34462;51.368;12.364;2024-03-17T03:01:29;20114.63;;;-141.84;80.83
15260;BME280;34462;51.368;12.364;2024-03-17T03:03:59;19718.31;;;-141.84;80.57
15260;BME280;34462;51.368;12.364;2024-03-17T03:06:26;20895.19;;;-141.84;81.62
15260;BME280;34462;51.368;12.364;2024-03-17T03:08:53;19265.13;;;-141.84;79.24
15260;BME280;34462;51.368;12.364;2024-03-17T03:11:21;18724.66;;;-141.84;77.95
15260;BME280;34462;51.368;12.364;2024-03-17T03:13:48;18870.94;;;-141.84;78.38
15260;BME280;34462;51.368;12.364;2024-03-17T03:16:19;18684.00;;;-141.84;77.89
15260;BME280;34462;51.368;12.364;2024-03-17T03:18:47;19149.31;;;-141.84;79.54
15260;BME280;34462;51.368;12.364;2024-03-17T03:21:15;19905.28;;;-141.84;80.69
15260;BME280;34462;51.368;12.364;2024-03-17T03:23:44;20669.56;;;-141.84;81.40
15260;BME280;34462;51.368;12.364;2024-03-17T03:26:13;19854.50;;;-141.84;80.76
15260;BME280;34462;51.368;12.364;2024-03-17T03:28:40;20893.16;;;-141.84;81.75
15260;BME280;34462;51.368;12.364;2024-03-17T03:31:14;22308.34;;;-141.84;82.54
15260;BME280;34462;51.368;12.364;2024-03-17T03:33:44;22554.41;;;-141.84;82.53
15260;BME280;34462;51.368;12.364;2024-03-17T03:36:14;23064.94;;;-141.84;82.75
15260;BME280;34462;51.368;12.364;2024-03-17T03:38:42;21438.03;;;-141.84;81.97
15260;BME280;34462;51.368;12.364;2024-03-17T03:41:14;19781.31;;;-141.84;80.42
15260;BME280;34462;51.368;12.364;2024-03-17T03:43:42;19003.00;;;-141.84;78.94
15260;BME280;34462;51.368;12.364;2024-03-17T03:46:15;18915.63;;;-141.84;78.89
15260;BME280;34462;51.368;12.364;2024-03-17T03:48:44;19964.25;;;-141.84;80.89
15260;BME280;34462;51.368;12.364;2024-03-17T03:51:11;19895.13;;;-141.84;80.71
15260;BME280;34462;51.368;12.364;2024-03-17T03:53:38;19724.41;;;-141.84;80.52
15260;BME280;34462;51.368;12.364;2024-03-17T03:56:06;20456.13;;;-141.84;81.39
15260;BME280;34462;51.368;12.364;2024-03-17T03:58:34;22912.38;;;-141.84;82.99
15260;BME280;34462;51.368;12.364;2024-03-17T04:01:04;22647.97;;;-141.84;82.48
15260;BME280;34462;51.368;12.364;2024-03-17T04:03:35;21381.09;;;-141.84;82.05
15260;BME280;34462;51.368;12.364;2024-03-17T04:06:07;22989.69;;;-141.84;82.99
15260;BME280;34462;51.368;12.364;2024-03-17T04:08:36;24324.22;;;-141.84;83.47
15260;BME280;34462;51.368;12.364;2024-03-17T04:11:06;28638.16;;;-141.84;84.36
15260;BME280;34462;51.368;12.364;2024-03-17T04:13:35;26742.19;;;-141.84;83.99
15260;BME280;34462;51.368;12.364;2024-03-17T04:16:05;28320.41;;;-141.84;84.38
15260;BME280;34462;51.368;12.364;2024-03-17T04:18:33;26778.84;;;-141.84;83.88
15260;BME280;34462;51.368;12.364;2024-03-17T04:21:04;24071.91;;;-141.84;83.04
15260;BME280;34462;51.368;12.364;2024-03-17T04:23:33;25103.59;;;-141.84;83.73
15260;BME280;34462;51.368;12.364;2024-03-17T04:26:01;22054.13;;;-141.84;82.24
15260;BME280;34462;51.368;12.364;2024-03-17T04:28:32;22611.38;;;-141.84;82.72
15260;BME280;34462;51.368;12.364;2024-03-17T04:31:04;22086.69;;;-141.84;82.49
15260;BME280;34462;51.368;12.364;2024-03-17T04:33:34;20826.09;;;-141.84;81.74
15260;BME280;34462;51.368;12.364;2024-03-17T04:36:03;21255.03;;;-141.84;82.09
15260;BME280;34462;51.368;12.364;2024-03-17T04:38:33;20817.94;;;-141.84;81.48
15260;BME280;34462;51.368;12.364;2024-03-17T04:41:00;19297.66;;;-141.84;79.88
15260;BME280;34462;51.368;12.364;2024-03-17T04:43:32;19122.91;;;-141.84;79.73
15260;BME280;34462;51.368;12.364;2024-03-17T04:46:00;19216.38;;;-141.84;79.84
15260;BME280;34462;51.368;12.364;2024-03-17T04:48:30;20236.59;;;-141.84;81.22
15260;BME280;34462;51.368;12.364;2024-03-17T04:50:59;20860.66;;;-141.84;81.49
15260;BME280;34462;51.368;12.364;2024-03-17T04:53:28;20155.28;;;-141.84;80.97
15260;BME280;34462;51.368;12.364;2024-03-17T04:56:00;19167.59;;;-141.84;79.61
15260;BME280;34462;51.368;12.364;2024-03-17T04:58:28;18870.94;;;-141.84;78.94
15260;BME280;34462;51.368;12.364;2024-03-17T05:00:55;18931.91;;;-141.84;78.96
15260;BME280;34462;51.368;12.364;2024-03-17T05:03:23;18590.56;;;-141.84;77.41
15260;BME280;34462;51.368;12.364;2024-03-17T05:05:58;18694.16;;;-141.84;78.09
15260;BME280;34462;51.368;12.364;2024-03-17T05:08:31;18795.75;;;-141.84;78.25
15260;BME280;34462;51.368;12.364;2024-03-17T05:10:59;18877.03;;;-141.84;78.90
15260;BME280;34462;51.368;12.364;2024-03-17T05:13:31;18870.94;;;-141.84;78.84
15260;BME280;34462;51.368;12.364;2024-03-17T05:16:00;19153.38;;;-141.84;79.82
15260;BME280;34462;51.368;12.364;2024-03-17T05:18:27;19893.09;;;-141.84;81.01
15260;BME280;34462;51.368;12.364;2024-03-17T05:20:58;20817.94;;;-141.84;81.58
15260;BME280;34462;51.368;12.364;2024-03-17T05:23:29;19464.28;;;-141.84;80.16
15260;BME280;34462;51.368;12.364;2024-03-17T05:25:58;18814.03;;;-141.84;78.52
15260;BME280;34462;51.368;12.364;2024-03-17T05:28:27;18773.41;;;-141.84;78.36
15260;BME280;34462;51.368;12.364;2024-03-17T05:30:55;18866.88;;;-141.84;78.90
15260;BME280;34462;51.368;12.364;2024-03-17T05:33:25;18826.25;;;-141.84;78.34
15260;BME280;34462;51.368;12.364;2024-03-17T05:35:55;18858.75;;;-141.84;78.85
15260;BME280;34462;51.368;12.364;2024-03-17T05:38:24;18877.03;;;-141.84;78.71
15260;BME280;34462;51.368;12.364;2024-03-17T05:40:58;18866.88;;;-141.84;78.59
15260;BME280;34462;51.368;12.364;2024-03-17T05:43:27;18677.91;;;-141.84;77.46
15260;BME280;34462;51.368;12.364;2024-03-17T05:45:57;18747.00;;;-141.84;78.16
15260;BME280;34462;51.368;12.364;2024-03-17T05:48:25;18698.22;;;-141.84;77.95
15260;BME280;34462;51.368;12.364;2024-03-17T05:50:55;18842.50;;;-141.84;78.43
15260;BME280;34462;51.368;12.364;2024-03-17T05:53:23;18627.13;;;-141.84;77.25
15260;BME280;34462;51.368;12.364;2024-03-17T05:55:56;18655.56;;;-141.84;77.36
15260;BME280;34462;51.368;12.364;2024-03-17T05:58:25;18537.72;;;-141.84;76.63
15260;BME280;34462;51.368;12.364;2024-03-17T06:00:55;18403.63;;;-141.84;74.90
15260;BME280;34462;51.368;12.364;2024-03-17T06:03:24;18419.88;;;-141.84;74.64
15260;BME280;34462;51.368;12.364;2024-03-17T06:05:55;18537.72;;;-141.84;76.60
15260;BME280;34462;51.368;12.364;2024-03-17T06:08:22;18795.75;;;-141.84;78.11
15260;BME280;34462;51.368;12.364;2024-03-17T06:10:56;18938.00;;;-141.84;78.52
15260;BME280;34462;51.368;12.364;2024-03-17T06:13:26;19244.81;;;-141.84;79.41
15260;BME280;34462;51.368;12.364;2024-03-17T06:15:55;18828.28;;;-141.84;78.24
15260;BME280;34462;51.368;12.364;2024-03-17T06:18:27;18755.13;;;-141.84;77.68
15260;BME280;34462;51.368;12.364;2024-03-17T06:20:55;18716.53;;;-141.84;77.67
15260;BME280;34462;51.368;12.364;2024-03-17T06:23:24;18541.78;;;-141.84;76.05
15260;BME280;34462;51.368;12.364;2024-03-17T06:25:56;18515.38;;;-141.84;76.04
15260;BME280;34462;51.368;12.364;2024-03-17T06:28:24;18515.38;;;-141.84;75.92
15260;BME280;34462;51.368;12.364;2024-03-17T06:30:57;18486.94;;;-141.84;75.24
15260;BME280;34462;51.368;12.364;2024-03-17T06:33:26;18448.34;;;-141.84;74.93
15260;BME280;34462;51.368;12.364;2024-03-17T06:35:55;18452.41;;;-141.84;74.58
15260;BME280;34462;51.368;12.364;2024-03-17T06:38:23;18421.91;;;-141.84;74.13
15260;BME280;34462;51.368;12.364;2024-03-17T06:40:54;18395.50;;;-141.84;72.75
15260;BME280;34462;51.368;12.364;2024-03-17T06:43:23;18367.06;;;-141.84;71.94
15260;BME280;34462;51.368;12.364;2024-03-17T06:45:56;18371.13;;;-141.84;70.90
15260;BME280;34462;51.368;12.364;2024-03-17T06:48:24;18365.03;;;-141.84;71.43
15260;BME280;34462;51.368;12.364;2024-03-17T06:50:55;18348.78;;;-141.84;70.67
15260;BME280;34462;51.368;12.364;2024-03-17T06:53:22;18352.84;;;-141.84;69.67
15260;BME280;34462;51.368;12.364;2024-03-17T06:55:56;18371.13;;;-141.84;68.23
15260;BME280;34462;51.368;12.364;2024-03-17T06:58:26;18399.56;;;-141.84;67.40
15260;BME280;34462;51.368;12.364;2024-03-17T07:00:56;18397.53;;;-141.84;66.00
15260;BME280;34462;51.368;12.364;2024-03-17T07:03:25;18432.09;;;-141.84;63.24
15260;BME280;34462;51.368;12.364;2024-03-17T07:05:57;18430.06;;;-141.84;62.83
15260;BME280;34462;51.368;12.364;2024-03-17T07:08:25;18456.47;;;-141.84;60.07
15260;BME280;34462;51.368;12.364;2024-03-17T07:11:00;18495.06;;;-141.84;60.48
15260;BME280;34462;51.368;12.364;2024-03-17T07:13:36;18495.06;;;-141.84;61.37
15260;BME280;34462;51.368;12.364;2024-03-17T07:16:05;18468.66;;;-141.84;60.12
15260;BME280;34462;51.368;12.364;2024-03-17T07:18:35;18488.97;;;-141.84;58.11
15260;BME280;34462;51.368;12.364;2024-03-17T07:21:04;18519.44;;;-141.84;59.65
15260;BME280;34462;51.368;12.364;2024-03-17T07:23:35;18464.59;;;-141.84;59.87
15260;BME280;34462;51.368;12.364;2024-03-17T07:26:03;18495.06;;;-141.84;58.68
15260;BME280;34462;51.368;12.364;2024-03-17T07:28:35;18533.66;;;-141.84;58.70
15260;BME280;34462;51.368;12.364;2024-03-17T07:31:08;18499.13;;;-141.84;59.25
15260;BME280;34462;51.368;12.364;2024-03-17T07:33:40;18525.53;;;-141.84;58.77
15260;BME280;34462;51.368;12.364;2024-03-17T07:36:08;18539.75;;;-141.84;58.21
15260;BME280;34462;51.368;12.364;2024-03-17T07:38:40;18525.53;;;-141.84;57.36
15260;BME280;34462;51.368;12.364;2024-03-17T07:41:09;18545.84;;;-141.84;57.76
15260;BME280;34462;51.368;12.364;2024-03-17T07:43:42;18582.44;;;-141.84;56.34
15260;BME280;34462;51.368;12.364;2024-03-17T07:46:15;18582.44;;;-141.84;57.45
15260;BME280;34462;51.368;12.364;2024-03-17T07:48:44;18582.44;;;-141.84;57.95
15260;BME280;34462;51.368;12.364;2024-03-17T07:51:16;18570.22;;;-141.84;57.20
15260;BME280;34462;51.368;12.364;2024-03-17T07:53:46;18594.63;;;-141.84;57.03
15260;BME280;34462;51.368;12.364;2024-03-17T07:56:16;18598.69;;;-141.84;56.00
15260;BME280;34462;51.368;12.364;2024-03-17T07:58:45;18586.50;;;-141.84;55.75
15260;BME280;34462;51.368;12.364;2024-03-17T08:01:16;18610.88;;;-141.84;55.88
15260;BME280;34462;51.368;12.364;2024-03-17T08:03:46;18588.53;;;-141.84;55.31
15260;BME280;34462;51.368;12.364;2024-03-17T08:06:15;18578.38;;;-141.84;56.20
15260;BME280;34462;51.368;12.364;2024-03-17T08:08:42;18574.28;;;-141.84;57.74
15260;BME280;34462;51.368;12.364;2024-03-17T08:11:15;18531.63;;;-141.84;58.17
15260;BME280;34462;51.368;12.364;2024-03-17T08:13:43;18549.91;;;-141.84;57.97
15260;BME280;34462;51.368;12.364;2024-03-17T08:16:15;18558.03;;;-141.84;57.85
15260;BME280;34462;51.368;12.364;2024-03-17T08:18:43;18549.91;;;-141.84;57.68
15260;BME280;34462;51.368;12.364;2024-03-17T08:21:15;18588.53;;;-141.84;57.63
15260;BME280;34462;51.368;12.364;2024-03-17T08:23:42;18612.91;;;-141.84;57.38
15260;BME280;34462;51.368;12.364;2024-03-17T08:26:15;18592.59;;;-141.84;57.67
15260;BME280;34462;51.368;12.364;2024-03-17T08:28:44;18590.56;;;-141.84;56.71
15260;BME280;34462;51.368;12.364;2024-03-17T08:31:15;18549.91;;;-141.84;57.89
15260;BME280;34462;51.368;12.364;2024-03-17T08:33:42;18533.66;;;-141.84;57.90
15260;BME280;34462;51.368;12.364;2024-03-17T08:36:16;18612.91;;;-141.84;56.70
15260;BME280;34462;51.368;12.364;2024-03-17T08:38:44;18592.59;;;-141.84;57.10
15260;BME280;34462;51.368;12.364;2024-03-17T08:41:15;18600.72;;;-141.84;56.08
15260;BME280;34462;51.368;12.364;2024-03-17T08:43:44;18592.59;;;-141.84;56.67
15260;BME280;34462;51.368;12.364;2024-03-17T08:46:15;18621.03;;;-141.84;55.51
15260;BME280;34462;51.368;12.364;2024-03-17T08:48:42;18602.75;;;-141.84;54.79
15260;BME280;34462;51.368;12.364;2024-03-17T08:51:15;18606.81;;;-141.84;55.50
15260;BME280;34462;51.368;12.364;2024-03-17T08:53:42;18600.72;;;-141.84;56.11
15260;BME280;34462;51.368;12.364;2024-03-17T08:56:15;18657.59;;;-141.84;55.96
15260;BME280;34462;51.368;12.364;2024-03-17T08:58:43;18619.00;;;-141.84;55.13
15260;BME280;34462;51.368;12.364;2024-03-17T09:01:15;18631.19;;;-141.84;53.66
15260;BME280;34462;51.368;12.364;2024-03-17T09:03:42;18627.13;;;-141.84;53.61
15260;BME280;34462;51.368;12.364;2024-03-17T09:06:16;18661.66;;;-141.84;52.00
15260;BME280;34462;51.368;12.364;2024-03-17T09:08:45;18639.31;;;-141.84;52.83
15260;BME280;34462;51.368;12.364;2024-03-17T09:11:15;18665.72;;;-141.84;52.87
15260;BME280;34462;51.368;12.364;2024-03-17T09:13:44;18696.19;;;-141.84;52.09
15260;BME280;34462;51.368;12.364;2024-03-17T09:16:15;18690.09;;;-141.84;50.94
15260;BME280;34462;51.368;12.364;2024-03-17T09:18:44;18696.19;;;-141.84;51.25
15260;BME280;34462;51.368;12.364;2024-03-17T09:21:15;18716.53;;;-141.84;50.54
15260;BME280;34462;51.368;12.364;2024-03-17T09:23:43;18753.09;;;-141.84;48.69
15260;BME280;34462;51.368;12.364;2024-03-17T09:26:15;18799.81;;;-141.84;48.53
15260;BME280;34462;51.368;12.364;2024-03-17T09:28:44;18757.16;;;-141.84;48.59
15260;BME280;34462;51.368;12.364;2024-03-17T09:31:15;18749.03;;;-141.84;48.55
15260;BME280;34462;51.368;12.364;2024-03-17T09:33:42;18805.91;;;-141.84;48.71
15260;BME280;34462;51.368;12.364;2024-03-17T09:36:15;18809.97;;;-141.84;46.96
15260;BME280;34462;51.368;12.364;2024-03-17T09:38:42;18850.63;;;-141.84;46.50
15260;BME280;34462;51.368;12.364;2024-03-17T09:41:20;18832.34;;;-141.84;46.19
15260;BME280;34462;51.368;12.364;2024-03-17T09:43:57;18834.38;;;-141.84;45.86
15260;BME280;34462;51.368;12.364;2024-03-17T09:46:26;18889.22;;;-141.84;46.13
15260;BME280;34462;51.368;12.364;2024-03-17T09:48:55;18858.75;;;-141.84;46.41
15260;BME280;34462;51.368;12.364;2024-03-17T09:51:25;18901.41;;;-141.84;45.07
15260;BME280;34462;51.368;12.364;2024-03-17T09:53:55;18870.94;;;-141.84;44.43
15260;BME280;34462;51.368;12.364;2024-03-17T09:56:23;18887.19;;;-141.84;45.54
15260;BME280;34462;51.368;12.364;2024-03-17T09:58:55;18909.53;;;-141.84;44.58
15260;BME280;34462;51.368;12.364;2024-03-17T10:01:22;18887.19;;;-141.84;45.72
15260;BME280;34462;51.368;12.364;2024-03-17T10:03:55;18877.03;;;-141.84;45.18
15260;BME280;34462;51.368;12.364;2024-03-17T10:06:26;18921.75;;;-141.84;44.24
15260;BME280;34462;51.368;12.364;2024-03-17T10:08:56;18931.91;;;-141.84;44.38
15260;BME280;34462;51.368;12.364;2024-03-17T10:11:31;18952.22;;;-141.84;44.02
15260;BME280;34462;51.368;12.364;2024-03-17T10:14:06;18923.78;;;-141.84;44.60
15260;BME280;34462;51.368;12.364;2024-03-17T10:16:37;18944.09;;;-141.84;43.59
15260;BME280;34462;51.368;12.364;2024-03-17T10:19:09;18911.56;;;-141.84;44.44
15260;BME280;34462;51.368;12.364;2024-03-17T10:21:43;18923.78;;;-141.84;44.28
15260;BME280;34462;51.368;12.364;2024-03-17T10:24:21;18940.03;;;-141.84;44.26
15260;BME280;34462;51.368;12.364;2024-03-17T10:26:54;18872.97;;;-141.84;45.22
15260;BME280;34462;51.368;12.364;2024-03-17T10:29:26;18872.97;;;-141.84;45.19
15260;BME280;34462;51.368;12.364;2024-03-17T10:31:57;18885.16;;;-141.84;44.93
15260;BME280;34462;51.368;12.364;2024-03-17T10:34:26;18877.03;;;-141.84;45.43
15260;BME280;34462;51.368;12.364;2024-03-17T10:37:09;18875.00;;;-141.84;45.47
15260;BME280;34462;51.368;12.364;2024-03-17T10:39:44;18885.16;;;-141.84;45.36
15260;BME280;34462;51.368;12.364;2024-03-17T10:42:25;18954.25;;;-141.84;44.81
15260;BME280;34462;51.368;12.364;2024-03-17T10:44:57;18913.59;;;-141.84;44.59
15260;BME280;34462;51.368;12.364;2024-03-17T10:47:27;18952.22;;;-141.84;43.60
15260;BME280;34462;51.368;12.364;2024-03-17T10:49:56;18899.38;;;-141.84;44.78
15260;BME280;34462;51.368;12.364;2024-03-17T10:52:24;18988.78;;;-141.84;44.07
15260;BME280;34462;51.368;12.364;2024-03-17T10:54:55;18970.50;;;-141.84;44.69
15260;BME280;34462;51.368;12.364;2024-03-17T10:57:36;18905.47;;;-141.84;44.13
15260;BME280;34462;51.368;12.364;2024-03-17T11:00:18;18942.06;;;-141.84;44.35
15260;BME280;34462;51.368;12.364;2024-03-17T11:02:49;18923.78;;;-141.84;44.77
15260;BME280;34462;51.368;12.364;2024-03-17T11:05:24;18919.69;;;-141.84;44.16
15260;BME280;34462;51.368;12.364;2024-03-17T11:07:57;18913.59;;;-141.84;44.59
15260;BME280;34462;51.368;12.364;2024-03-17T11:10:29;18905.47;;;-141.84;45.25
15260;BME280;34462;51.368;12.364;2024-03-17T11:13:03;18885.16;;;-141.84;45.28
15260;BME280;34462;51.368;12.364;2024-03-17T11:15:39;18879.06;;;-141.84;45.95
15260;BME280;34462;51.368;12.364;2024-03-17T11:18:37;18889.22;;;-141.84;45.94
15260;BME280;34462;51.368;12.364;2024-03-17T11:21:17;18893.28;;;-141.84;46.02
15260;BME280;34462;51.368;12.364;2024-03-17T11:23:58;18842.50;;;-141.84;47.07
15260;BME280;34462;51.368;12.364;2024-03-17T11:26:35;18830.31;;;-141.84;47.01
15260;BME280;34462;51.368;12.364;2024-03-17T11:29:02;18846.56;;;-141.84;47.09
15260;BME280;34462;51.368;12.364;2024-03-17T11:31:43;18858.75;;;-141.84;46.74
15260;BME280;34462;51.368;12.364;2024-03-17T11:34:31;18854.69;;;-141.84;46.73
15260;BME280;34462;51.368;12.364;2024-03-17T11:37:03;18860.78;;;-141.84;46.65
15260;BME280;34462;51.368;12.364;2024-03-17T11:39:55;18866.88;;;-141.84;46.33
15260;BME280;34462;51.368;12.364;2024-03-17T11:42:24;18895.31;;;-141.84;46.27
15260;BME280;34462;51.368;12.364;2024-03-17T11:45:15;18895.31;;;-141.84;46.27
15260;BME280;34462;51.368;12.364;2024-03-17T11:47:43;18862.81;;;-141.84;46.26
15260;BME280;34462;51.368;12.364;2024-03-17T11:50:15;18885.16;;;-141.84;45.80
15260;BME280;34462;51.368;12.364;2024-03-17T11:52:41;18885.16;;;-141.84;45.76
15260;BME280;34462;51.368;12.364;2024-03-17T11:55:18;18897.34;;;-141.84;45.52
15260;BME280;34462;51.368;12.364;2024-03-17T11:57:45;18915.63;;;-141.84;45.27
15260;BME280;34462;51.368;12.364;2024-03-17T12:00:21;18915.63;;;-141.84;44.62
15260;BME280;34462;51.368;12.364;2024-03-17T12:02:55;18931.91;;;-141.84;44.50
15260;BME280;34462;51.368;12.364;2024-03-17T12:05:24;18944.09;;;-141.84;44.10
15260;BME280;34462;51.368;12.364;2024-03-17T12:07:55;18948.16;;;-141.84;44.06
15260;BME280;34462;51.368;12.364;2024-03-17T12:10:22;18970.50;;;-141.84;43.88
15260;BME280;34462;51.368;12.364;2024-03-17T12:12:49;18879.06;;;-141.84;44.66
15260;BME280;34462;51.368;12.364;2024-03-17T12:15:21;18970.50;;;-141.84;44.30
15260;BME280;34462;51.368;12.364;2024-03-17T12:17:55;18942.06;;;-141.84;44.55
15260;BME280;34462;51.368;12.364;2024-03-17T12:20:25;18960.34;;;-141.84;44.33
15260;BME280;34462;51.368;12.364;2024-03-17T12:22:55;18913.59;;;-141.84;44.67
15260;BME280;34462;51.368;12.364;2024-03-17T12:25:23;18929.88;;;-141.84;44.31
15260;BME280;34462;51.368;12.364;2024-03-17T12:27:55;18901.41;;;-141.84;44.99
15260;BME280;34462;51.368;12.364;2024-03-17T12:30:23;18883.13;;;-141.84;45.52
15260;BME280;34462;51.368;12.364;2024-03-17T12:32:56;18899.38;;;-141.84;45.45
15260;BME280;34462;51.368;12.364;2024-03-17T12:35:24;18931.91;;;-141.84;44.24
15260;BME280;34462;51.368;12.364;2024-03-17T12:37:55;18970.50;;;-141.84;44.03
15260;BME280;34462;51.368;12.364;2024-03-17T12:40:23;18964.41;;;-141.84;44.60
15260;BME280;34462;51.368;12.364;2024-03-17T12:42:55;18974.56;;;-141.84;44.09
15260;BME280;34462;51.368;12.364;2024-03-17T12:45:23;18984.72;;;-141.84;44.00